sensor_id;sensor_type;location;lat;lon;timestamp;P1;durP1;ratioP1;P2;durP2;ratioP2
11699;SDS011;5906;51.660;6.674;2023-03-20T00:01:58;32.90;;;18.53;;
11699;SDS011;5906;51.660;6.674;2023-03-20T00:04:26;30.03;;;17.57;;
11699;SDS011;5906;51.660;6.674;2023-03-20T00:06:52;32.77;;;17.60;;
11699;SDS011;5906;51.660;6.674;2023-03-20T00:09:19;30.43;;;15.93;;
11699;SDS011;5906;51.660;6.674;2023-03-20T00:11:50;33.17;;;18.07;;
11699;SDS011;5906;51.660;6.674;2023-03-20T00:14:19;28.87;;;16.40;;
11699;SDS011;5906;51.660;6.674;2023-03-20T00:16:49;32.13;;;18.30;;
11699;SDS011;5906;51.660;6.674;2023-03-20T00:19:20;33.77;;;17.03;;
11699;SDS011;5906;51.660;6.674;2023-03-20T00:21:53;35.30;;;18.10;;
11699;SDS011;5906;51.660;6.674;2023-03-20T00:24:21;33.40;;;17.90;;
11699;SDS011;5906;51.660;6.674;2023-03-20T00:26:49;33.47;;;17.60;;
11699;SDS011;5906;51.660;6.674;2023-03-20T00:29:27;33.33;;;18.70;;
11699;SDS011;5906;51.660;6.674;2023-03-20T00:31:56;33.70;;;17.90;;
11699;SDS011;5906;51.660;6.674;2023-03-20T00:34:25;30.13;;;17.30;;
11699;SDS011;5906;51.660;6.674;2023-03-20T00:36:55;33.30;;;18.83;;
11699;SDS011;5906;51.660;6.674;2023-03-20T00:39:23;31.63;;;17.60;;
11699;SDS011;5906;51.660;6.674;2023-03-20T00:41:54;33.77;;;17.80;;
11699;SDS011;5906;51.660;6.674;2023-03-20T00:47:25;32.13;;;16.57;;
11699;SDS011;5906;51.660;6.674;2023-03-20T00:49:53;33.30;;;18.53;;
11699;SDS011;5906;51.660;6.674;2023-03-20T00:52:21;31.63;;;15.90;;
11699;SDS011;5906;51.660;6.674;2023-03-20T00:54:49;28.03;;;15.67;;
11699;SDS011;5906;51.660;6.674;2023-03-20T00:57:19;29.13;;;15.97;;
11699;SDS011;5906;51.660;6.674;2023-03-20T00:59:56;23.73;;;15.00;;
11699;SDS011;5906;51.660;6.674;2023-03-20T01:02:30;26.70;;;14.70;;
11699;SDS011;5906;51.660;6.674;2023-03-20T01:04:58;27.30;;;14.37;;
11699;SDS011;5906;51.660;6.674;2023-03-20T01:07:25;32.47;;;14.97;;
11699;SDS011;5906;51.660;6.674;2023-03-20T01:09:52;23.40;;;13.13;;
11699;SDS011;5906;51.660;6.674;2023-03-20T01:12:19;22.07;;;12.30;;
11699;SDS011;5906;51.660;6.674;2023-03-20T01:14:53;24.17;;;12.57;;
11699;SDS011;5906;51.660;6.674;2023-03-20T01:17:23;27.77;;;13.37;;
11699;SDS011;5906;51.660;6.674;2023-03-20T01:19:52;23.80;;;13.60;;
11699;SDS011;5906;51.660;6.674;2023-03-20T01:22:19;27.07;;;13.87;;
11699;SDS011;5906;51.660;6.674;2023-03-20T01:24:47;22.50;;;13.17;;
11699;SDS011;5906;51.660;6.674;2023-03-20T01:27:15;20.93;;;12.70;;
11699;SDS011;5906;51.660;6.674;2023-03-20T01:29:43;23.00;;;11.50;;
11699;SDS011;5906;51.660;6.674;2023-03-20T01:32:13;23.40;;;11.40;;
11699;SDS011;5906;51.660;6.674;2023-03-20T01:34:42;21.73;;;11.90;;
11699;SDS011;5906;51.660;6.674;2023-03-20T01:37:13;28.20;;;14.00;;
11699;SDS011;5906;51.660;6.674;2023-03-20T01:39:49;21.87;;;12.67;;
11699;SDS011;5906;51.660;6.674;2023-03-20T01:42:16;20.13;;;11.97;;
11699;SDS011;5906;51.660;6.674;2023-03-20T01:44:43;25.20;;;13.60;;
11699;SDS011;5906;51.660;6.674;2023-03-20T01:47:15;20.20;;;12.17;;
11699;SDS011;5906;51.660;6.674;2023-03-20T01:52:27;29.70;;;13.87;;
11699;SDS011;5906;51.660;6.674;2023-03-20T01:54:54;20.00;;;11.77;;
11699;SDS011;5906;51.660;6.674;2023-03-20T01:57:22;18.37;;;10.87;;
11699;SDS011;5906;51.660;6.674;2023-03-20T01:59:59;22.60;;;12.07;;
11699;SDS011;5906;51.660;6.674;2023-03-20T02:02:31;16.13;;;10.43;;
11699;SDS011;5906;51.660;6.674;2023-03-20T02:04:59;19.70;;;11.00;;
11699;SDS011;5906;51.660;6.674;2023-03-20T02:07:29;21.57;;;11.90;;
11699;SDS011;5906;51.660;6.674;2023-03-20T02:10:00;17.60;;;10.63;;
11699;SDS011;5906;51.660;6.674;2023-03-20T02:12:28;20.13;;;10.20;;
11699;SDS011;5906;51.660;6.674;2023-03-20T02:14:56;17.73;;;11.60;;
11699;SDS011;5906;51.660;6.674;2023-03-20T02:17:24;17.77;;;10.90;;
11699;SDS011;5906;51.660;6.674;2023-03-20T02:45:12;15.63;;;10.20;;
11699;SDS011;5906;51.660;6.674;2023-03-20T02:47:49;18.57;;;9.90;;
11699;SDS011;5906;51.660;6.674;2023-03-20T02:55:42;18.17;;;9.83;;
11699;SDS011;5906;51.660;6.674;2023-03-20T03:01:16;16.90;;;9.90;;
11699;SDS011;5906;51.660;6.674;2023-03-20T03:03:54;14.47;;;9.70;;
11699;SDS011;5906;51.660;6.674;2023-03-20T03:06:26;13.93;;;8.77;;
11699;SDS011;5906;51.660;6.674;2023-03-20T03:09:03;15.10;;;9.47;;
11699;SDS011;5906;51.660;6.674;2023-03-20T03:11:39;17.77;;;10.10;;
11699;SDS011;5906;51.660;6.674;2023-03-20T03:14:13;15.23;;;9.33;;
11699;SDS011;5906;51.660;6.674;2023-03-20T03:16:59;17.57;;;10.37;;
11699;SDS011;5906;51.660;6.674;2023-03-20T03:19:29;15.83;;;9.70;;
11699;SDS011;5906;51.660;6.674;2023-03-20T03:21:58;18.13;;;9.53;;
11699;SDS011;5906;51.660;6.674;2023-03-20T03:24:27;17.20;;;10.00;;
11699;SDS011;5906;51.660;6.674;2023-03-20T03:27:20;14.20;;;9.57;;
11699;SDS011;5906;51.660;6.674;2023-03-20T03:29:57;19.17;;;9.67;;
11699;SDS011;5906;51.660;6.674;2023-03-20T03:32:36;15.53;;;9.30;;
11699;SDS011;5906;51.660;6.674;2023-03-20T03:35:10;17.10;;;9.57;;
11699;SDS011;5906;51.660;6.674;2023-03-20T03:37:58;17.17;;;9.60;;
11699;SDS011;5906;51.660;6.674;2023-03-20T03:43:14;13.13;;;9.03;;
11699;SDS011;5906;51.660;6.674;2023-03-20T03:45:57;16.07;;;9.67;;
11699;SDS011;5906;51.660;6.674;2023-03-20T03:48:41;15.37;;;8.87;;
11699;SDS011;5906;51.660;6.674;2023-03-20T03:51:13;15.10;;;9.33;;
11699;SDS011;5906;51.660;6.674;2023-03-20T03:53:44;14.57;;;9.30;;
11699;SDS011;5906;51.660;6.674;2023-03-20T03:56:18;17.07;;;10.37;;
11699;SDS011;5906;51.660;6.674;2023-03-20T03:58:51;15.33;;;9.90;;
11699;SDS011;5906;51.660;6.674;2023-03-20T04:01:22;13.87;;;8.70;;
11699;SDS011;5906;51.660;6.674;2023-03-20T04:03:54;13.43;;;8.50;;
11699;SDS011;5906;51.660;6.674;2023-03-20T04:06:24;16.87;;;10.13;;
11699;SDS011;5906;51.660;6.674;2023-03-20T04:08:52;19.43;;;8.60;;
11699;SDS011;5906;51.660;6.674;2023-03-20T04:11:23;14.83;;;9.30;;
11699;SDS011;5906;51.660;6.674;2023-03-20T04:13:53;21.27;;;10.13;;
11699;SDS011;5906;51.660;6.674;2023-03-20T04:16:22;18.13;;;9.13;;
11699;SDS011;5906;51.660;6.674;2023-03-20T04:18:50;17.97;;;9.40;;
11699;SDS011;5906;51.660;6.674;2023-03-20T04:21:18;15.07;;;8.80;;
11699;SDS011;5906;51.660;6.674;2023-03-20T04:23:45;19.17;;;9.30;;
11699;SDS011;5906;51.660;6.674;2023-03-20T04:26:12;18.70;;;9.10;;
11699;SDS011;5906;51.660;6.674;2023-03-20T04:28:39;16.73;;;9.47;;
11699;SDS011;5906;51.660;6.674;2023-03-20T04:31:06;17.13;;;8.57;;
11699;SDS011;5906;51.660;6.674;2023-03-20T04:33:33;14.27;;;8.73;;
11699;SDS011;5906;51.660;6.674;2023-03-20T04:36:01;16.37;;;9.33;;
11699;SDS011;5906;51.660;6.674;2023-03-20T04:38:28;16.10;;;8.93;;
11699;SDS011;5906;51.660;6.674;2023-03-20T04:40:55;18.47;;;10.30;;
11699;SDS011;5906;51.660;6.674;2023-03-20T04:43:22;18.67;;;9.37;;
11699;SDS011;5906;51.660;6.674;2023-03-20T04:45:49;22.10;;;10.17;;
11699;SDS011;5906;51.660;6.674;2023-03-20T04:48:16;14.20;;;9.17;;
11699;SDS011;5906;51.660;6.674;2023-03-20T04:50:44;17.07;;;9.30;;
11699;SDS011;5906;51.660;6.674;2023-03-20T04:53:16;18.83;;;9.47;;
11699;SDS011;5906;51.660;6.674;2023-03-20T04:55:44;19.50;;;10.53;;
11699;SDS011;5906;51.660;6.674;2023-03-20T04:58:11;20.97;;;10.77;;
11699;SDS011;5906;51.660;6.674;2023-03-20T05:00:38;20.10;;;10.03;;
11699;SDS011;5906;51.660;6.674;2023-03-20T05:03:06;22.10;;;11.80;;
11699;SDS011;5906;51.660;6.674;2023-03-20T05:05:33;22.00;;;11.17;;
11699;SDS011;5906;51.660;6.674;2023-03-20T05:08:06;21.13;;;10.83;;
11699;SDS011;5906;51.660;6.674;2023-03-20T05:10:33;17.87;;;10.80;;
11699;SDS011;5906;51.660;6.674;2023-03-20T05:13:00;22.43;;;11.57;;
11699;SDS011;5906;51.660;6.674;2023-03-20T05:15:27;20.00;;;11.37;;
11699;SDS011;5906;51.660;6.674;2023-03-20T05:17:55;28.73;;;12.17;;
11699;SDS011;5906;51.660;6.674;2023-03-20T05:20:22;25.70;;;12.57;;
11699;SDS011;5906;51.660;6.674;2023-03-20T05:22:49;24.57;;;12.80;;
11699;SDS011;5906;51.660;6.674;2023-03-20T05:25:16;27.63;;;13.53;;
11699;SDS011;5906;51.660;6.674;2023-03-20T05:27:44;41.00;;;14.10;;
11699;SDS011;5906;51.660;6.674;2023-03-20T05:30:12;29.07;;;13.50;;
11699;SDS011;5906;51.660;6.674;2023-03-20T05:32:40;28.50;;;14.50;;
11699;SDS011;5906;51.660;6.674;2023-03-20T05:35:09;28.43;;;14.67;;
11699;SDS011;5906;51.660;6.674;2023-03-20T05:37:37;34.50;;;16.80;;
11699;SDS011;5906;51.660;6.674;2023-03-20T05:40:05;29.37;;;15.83;;
11699;SDS011;5906;51.660;6.674;2023-03-20T05:42:32;31.97;;;14.97;;
11699;SDS011;5906;51.660;6.674;2023-03-20T05:45:00;30.33;;;15.50;;
11699;SDS011;5906;51.660;6.674;2023-03-20T05:47:27;39.13;;;16.30;;
11699;SDS011;5906;51.660;6.674;2023-03-20T05:49:54;30.10;;;14.87;;
11699;SDS011;5906;51.660;6.674;2023-03-20T05:52:21;32.97;;;17.10;;
11699;SDS011;5906;51.660;6.674;2023-03-20T05:54:48;30.80;;;15.23;;
11699;SDS011;5906;51.660;6.674;2023-03-20T05:57:16;32.60;;;14.60;;
11699;SDS011;5906;51.660;6.674;2023-03-20T05:59:43;31.97;;;15.67;;
11699;SDS011;5906;51.660;6.674;2023-03-20T06:02:11;28.23;;;14.97;;
11699;SDS011;5906;51.660;6.674;2023-03-20T06:04:38;27.77;;;13.70;;
11699;SDS011;5906;51.660;6.674;2023-03-20T06:07:05;32.20;;;14.80;;
11699;SDS011;5906;51.660;6.674;2023-03-20T06:09:32;31.00;;;13.97;;
11699;SDS011;5906;51.660;6.674;2023-03-20T06:11:59;27.00;;;13.90;;
11699;SDS011;5906;51.660;6.674;2023-03-20T06:14:26;27.10;;;13.10;;
11699;SDS011;5906;51.660;6.674;2023-03-20T06:16:53;24.13;;;12.50;;
11699;SDS011;5906;51.660;6.674;2023-03-20T06:19:22;28.23;;;12.67;;
11699;SDS011;5906;51.660;6.674;2023-03-20T06:21:49;23.00;;;12.67;;
11699;SDS011;5906;51.660;6.674;2023-03-20T06:24:16;26.10;;;12.53;;
11699;SDS011;5906;51.660;6.674;2023-03-20T06:26:43;21.87;;;11.60;;
11699;SDS011;5906;51.660;6.674;2023-03-20T06:29:10;29.70;;;13.10;;
11699;SDS011;5906;51.660;6.674;2023-03-20T06:31:37;24.73;;;11.67;;
11699;SDS011;5906;51.660;6.674;2023-03-20T06:34:04;24.87;;;10.10;;
11699;SDS011;5906;51.660;6.674;2023-03-20T06:36:31;25.07;;;9.90;;
11699;SDS011;5906;51.660;6.674;2023-03-20T06:38:58;21.00;;;10.60;;
11699;SDS011;5906;51.660;6.674;2023-03-20T06:41:25;23.40;;;10.13;;
11699;SDS011;5906;51.660;6.674;2023-03-20T06:44:00;15.30;;;8.97;;
11699;SDS011;5906;51.660;6.674;2023-03-20T06:46:27;19.17;;;9.30;;
11699;SDS011;5906;51.660;6.674;2023-03-20T06:48:54;23.90;;;10.33;;
11699;SDS011;5906;51.660;6.674;2023-03-20T06:51:21;18.07;;;8.90;;
11699;SDS011;5906;51.660;6.674;2023-03-20T06:53:48;18.67;;;9.13;;
11699;SDS011;5906;51.660;6.674;2023-03-20T06:56:16;19.03;;;8.00;;
11699;SDS011;5906;51.660;6.674;2023-03-20T06:58:43;14.37;;;7.80;;
11699;SDS011;5906;51.660;6.674;2023-03-20T07:01:11;16.03;;;7.90;;
11699;SDS011;5906;51.660;6.674;2023-03-20T07:03:41;17.33;;;9.13;;
11699;SDS011;5906;51.660;6.674;2023-03-20T07:06:09;21.60;;;8.77;;
11699;SDS011;5906;51.660;6.674;2023-03-20T07:08:38;17.03;;;8.67;;
11699;SDS011;5906;51.660;6.674;2023-03-20T07:11:05;14.70;;;8.37;;
11699;SDS011;5906;51.660;6.674;2023-03-20T07:13:33;16.60;;;8.27;;
11699;SDS011;5906;51.660;6.674;2023-03-20T07:16:00;13.73;;;7.63;;
11699;SDS011;5906;51.660;6.674;2023-03-20T07:18:30;15.60;;;7.90;;
11699;SDS011;5906;51.660;6.674;2023-03-20T07:21:01;13.53;;;7.97;;
11699;SDS011;5906;51.660;6.674;2023-03-20T07:23:30;13.90;;;7.53;;
11699;SDS011;5906;51.660;6.674;2023-03-20T07:25:59;12.87;;;8.00;;
11699;SDS011;5906;51.660;6.674;2023-03-20T07:28:26;17.63;;;9.13;;
11699;SDS011;5906;51.660;6.674;2023-03-20T07:30:54;11.60;;;7.43;;
11699;SDS011;5906;51.660;6.674;2023-03-20T07:33:21;18.23;;;9.13;;
11699;SDS011;5906;51.660;6.674;2023-03-20T07:35:52;15.40;;;7.83;;
11699;SDS011;5906;51.660;6.674;2023-03-20T07:38:20;19.10;;;10.10;;
11699;SDS011;5906;51.660;6.674;2023-03-20T07:40:48;17.43;;;8.00;;
11699;SDS011;5906;51.660;6.674;2023-03-20T07:43:15;19.43;;;8.33;;
11699;SDS011;5906;51.660;6.674;2023-03-20T07:45:42;21.17;;;9.70;;
11699;SDS011;5906;51.660;6.674;2023-03-20T07:48:09;17.10;;;8.63;;
11699;SDS011;5906;51.660;6.674;2023-03-20T07:50:37;14.53;;;7.53;;
11699;SDS011;5906;51.660;6.674;2023-03-20T07:53:04;14.40;;;8.60;;
11699;SDS011;5906;51.660;6.674;2023-03-20T07:55:31;16.53;;;8.10;;
11699;SDS011;5906;51.660;6.674;2023-03-20T07:57:58;16.67;;;7.73;;
11699;SDS011;5906;51.660;6.674;2023-03-20T08:00:25;17.57;;;7.90;;
11699;SDS011;5906;51.660;6.674;2023-03-20T08:02:53;16.13;;;7.40;;
11699;SDS011;5906;51.660;6.674;2023-03-20T08:05:22;17.40;;;8.03;;
11699;SDS011;5906;51.660;6.674;2023-03-20T08:07:50;14.87;;;7.50;;
11699;SDS011;5906;51.660;6.674;2023-03-20T08:10:17;15.37;;;8.40;;
11699;SDS011;5906;51.660;6.674;2023-03-20T08:12:44;18.20;;;7.70;;
11699;SDS011;5906;51.660;6.674;2023-03-20T08:15:11;13.30;;;7.13;;
11699;SDS011;5906;51.660;6.674;2023-03-20T08:17:42;11.57;;;7.33;;
11699;SDS011;5906;51.660;6.674;2023-03-20T08:20:10;10.33;;;6.50;;
11699;SDS011;5906;51.660;6.674;2023-03-20T08:22:39;14.10;;;7.90;;
11699;SDS011;5906;51.660;6.674;2023-03-20T08:25:06;11.30;;;6.97;;
11699;SDS011;5906;51.660;6.674;2023-03-20T08:27:34;14.37;;;8.20;;
11699;SDS011;5906;51.660;6.674;2023-03-20T08:30:02;17.57;;;8.10;;
11699;SDS011;5906;51.660;6.674;2023-03-20T08:32:30;12.37;;;6.80;;
11699;SDS011;5906;51.660;6.674;2023-03-20T08:34:57;13.43;;;7.20;;
11699;SDS011;5906;51.660;6.674;2023-03-20T08:37:23;17.13;;;7.60;;
11699;SDS011;5906;51.660;6.674;2023-03-20T08:39:50;19.60;;;6.20;;
11699;SDS011;5906;51.660;6.674;2023-03-20T08:42:17;18.97;;;6.23;;
11699;SDS011;5906;51.660;6.674;2023-03-20T08:44:45;15.40;;;6.10;;
11699;SDS011;5906;51.660;6.674;2023-03-20T08:47:13;14.00;;;6.60;;
11699;SDS011;5906;51.660;6.674;2023-03-20T08:49:41;15.33;;;6.27;;
11699;SDS011;5906;51.660;6.674;2023-03-20T08:52:08;10.30;;;6.30;;
11699;SDS011;5906;51.660;6.674;2023-03-20T08:54:36;16.27;;;5.30;;
11699;SDS011;5906;51.660;6.674;2023-03-20T08:57:03;11.00;;;5.87;;
11699;SDS011;5906;51.660;6.674;2023-03-20T08:59:30;10.67;;;5.97;;
11699;SDS011;5906;51.660;6.674;2023-03-20T09:01:58;12.40;;;5.70;;
11699;SDS011;5906;51.660;6.674;2023-03-20T09:04:25;14.90;;;5.57;;
11699;SDS011;5906;51.660;6.674;2023-03-20T09:06:53;8.70;;;4.73;;
11699;SDS011;5906;51.660;6.674;2023-03-20T09:09:20;14.43;;;5.80;;
11699;SDS011;5906;51.660;6.674;2023-03-20T09:11:52;7.93;;;5.10;;
11699;SDS011;5906;51.660;6.674;2023-03-20T09:14:19;12.60;;;5.73;;
11699;SDS011;5906;51.660;6.674;2023-03-20T09:16:46;7.60;;;5.00;;
11699;SDS011;5906;51.660;6.674;2023-03-20T09:19:13;8.07;;;4.60;;
11699;SDS011;5906;51.660;6.674;2023-03-20T09:21:40;8.03;;;4.40;;
11699;SDS011;5906;51.660;6.674;2023-03-20T09:24:07;6.43;;;4.50;;
11699;SDS011;5906;51.660;6.674;2023-03-20T09:26:34;9.67;;;4.27;;
11699;SDS011;5906;51.660;6.674;2023-03-20T09:29:02;6.20;;;4.10;;
11699;SDS011;5906;51.660;6.674;2023-03-20T09:31:30;9.00;;;4.90;;
11699;SDS011;5906;51.660;6.674;2023-03-20T09:33:57;9.47;;;3.87;;
11699;SDS011;5906;51.660;6.674;2023-03-20T09:36:24;11.13;;;4.00;;
11699;SDS011;5906;51.660;6.674;2023-03-20T09:38:51;7.40;;;4.60;;
11699;SDS011;5906;51.660;6.674;2023-03-20T09:41:20;8.30;;;4.30;;
11699;SDS011;5906;51.660;6.674;2023-03-20T09:47:07;13.53;;;4.33;;
11699;SDS011;5906;51.660;6.674;2023-03-20T09:49:50;6.57;;;4.00;;
11699;SDS011;5906;51.660;6.674;2023-03-20T09:52:32;7.60;;;4.20;;
11699;SDS011;5906;51.660;6.674;2023-03-20T09:55:16;17.33;;;4.37;;
11699;SDS011;5906;51.660;6.674;2023-03-20T09:57:55;8.27;;;4.43;;
11699;SDS011;5906;51.660;6.674;2023-03-20T10:00:28;9.47;;;4.13;;
11699;SDS011;5906;51.660;6.674;2023-03-20T10:06:12;8.90;;;4.87;;
11699;SDS011;5906;51.660;6.674;2023-03-20T10:08:42;8.30;;;4.17;;
11699;SDS011;5906;51.660;6.674;2023-03-20T10:16:47;10.50;;;4.87;;
11699;SDS011;5906;51.660;6.674;2023-03-20T10:22:19;8.47;;;4.30;;
11699;SDS011;5906;51.660;6.674;2023-03-20T10:25:01;9.73;;;4.50;;
11699;SDS011;5906;51.660;6.674;2023-03-20T10:27:50;9.60;;;4.40;;
11699;SDS011;5906;51.660;6.674;2023-03-20T10:41:34;11.07;;;4.40;;
11699;SDS011;5906;51.660;6.674;2023-03-20T10:44:04;6.70;;;4.43;;
11699;SDS011;5906;51.660;6.674;2023-03-20T10:46:40;12.87;;;4.97;;
11699;SDS011;5906;51.660;6.674;2023-03-20T10:52:04;12.70;;;5.30;;
11699;SDS011;5906;51.660;6.674;2023-03-20T10:54:40;12.23;;;4.70;;
11699;SDS011;5906;51.660;6.674;2023-03-20T10:57:32;9.57;;;5.03;;
11699;SDS011;5906;51.660;6.674;2023-03-20T10:59:59;6.00;;;4.10;;
11699;SDS011;5906;51.660;6.674;2023-03-20T11:02:27;10.63;;;4.67;;
11699;SDS011;5906;51.660;6.674;2023-03-20T11:04:58;7.63;;;4.27;;
11699;SDS011;5906;51.660;6.674;2023-03-20T11:17:49;9.50;;;3.90;;
11699;SDS011;5906;51.660;6.674;2023-03-20T11:20:18;8.60;;;4.23;;
11699;SDS011;5906;51.660;6.674;2023-03-20T11:22:46;9.70;;;4.17;;
11699;SDS011;5906;51.660;6.674;2023-03-20T11:26:16;8.93;;;3.83;;
11699;SDS011;5906;51.660;6.674;2023-03-20T11:28:29;6.73;;;4.00;;
11699;SDS011;5906;51.660;6.674;2023-03-20T11:31:19;18.10;;;4.50;;
11699;SDS011;5906;51.660;6.674;2023-03-20T11:33:52;11.90;;;4.23;;
11699;SDS011;5906;51.660;6.674;2023-03-20T11:36:33;9.60;;;3.90;;
11699;SDS011;5906;51.660;6.674;2023-03-20T11:39:09;7.87;;;4.20;;
11699;SDS011;5906;51.660;6.674;2023-03-20T11:41:46;7.90;;;4.40;;
11699;SDS011;5906;51.660;6.674;2023-03-20T11:46:59;10.40;;;5.40;;
11699;SDS011;5906;51.660;6.674;2023-03-20T11:49:32;11.10;;;4.40;;
11699;SDS011;5906;51.660;6.674;2023-03-20T11:52:11;5.20;;;4.10;;
11699;SDS011;5906;51.660;6.674;2023-03-20T11:54:45;7.90;;;4.10;;
11699;SDS011;5906;51.660;6.674;2023-03-20T11:57:34;11.77;;;5.10;;
11699;SDS011;5906;51.660;6.674;2023-03-20T12:00:04;9.33;;;5.03;;
11699;SDS011;5906;51.660;6.674;2023-03-20T12:02:32;10.70;;;4.50;;
11699;SDS011;5906;51.660;6.674;2023-03-20T12:05:08;7.10;;;4.60;;
11699;SDS011;5906;51.660;6.674;2023-03-20T12:08:07;12.40;;;5.10;;
11699;SDS011;5906;51.660;6.674;2023-03-20T12:10:43;23.80;;;4.90;;
11699;SDS011;5906;51.660;6.674;2023-03-20T12:13:21;11.13;;;4.63;;
11699;SDS011;5906;51.660;6.674;2023-03-20T12:16:00;8.43;;;4.63;;
11699;SDS011;5906;51.660;6.674;2023-03-20T12:18:30;6.30;;;4.50;;
11699;SDS011;5906;51.660;6.674;2023-03-20T12:27:12;10.00;;;5.00;;
11699;SDS011;5906;51.660;6.674;2023-03-20T12:29:51;15.23;;;4.33;;
11699;SDS011;5906;51.660;6.674;2023-03-20T12:32:39;5.90;;;3.70;;
11699;SDS011;5906;51.660;6.674;2023-03-20T12:35:28;6.43;;;4.00;;
11699;SDS011;5906;51.660;6.674;2023-03-20T12:37:57;6.27;;;3.70;;
11699;SDS011;5906;51.660;6.674;2023-03-20T12:40:38;7.10;;;4.53;;
11699;SDS011;5906;51.660;6.674;2023-03-20T12:43:29;5.37;;;3.87;;
11699;SDS011;5906;51.660;6.674;2023-03-20T12:48:54;6.03;;;3.60;;
11699;SDS011;5906;51.660;6.674;2023-03-20T12:51:27;6.60;;;3.60;;
11699;SDS011;5906;51.660;6.674;2023-03-20T12:59:53;8.70;;;4.23;;
11699;SDS011;5906;51.660;6.674;2023-03-20T13:10:38;5.13;;;3.93;;
11699;SDS011;5906;51.660;6.674;2023-03-20T13:16:00;7.77;;;4.10;;
11699;SDS011;5906;51.660;6.674;2023-03-20T13:18:48;8.10;;;4.47;;
11699;SDS011;5906;51.660;6.674;2023-03-20T13:27:01;6.93;;;4.50;;
11699;SDS011;5906;51.660;6.674;2023-03-20T13:30:12;8.80;;;4.10;;
11699;SDS011;5906;51.660;6.674;2023-03-20T13:32:38;5.33;;;4.43;;
11699;SDS011;5906;51.660;6.674;2023-03-20T13:37:57;11.53;;;5.30;;
11699;SDS011;5906;51.660;6.674;2023-03-20T13:40:29;6.63;;;3.90;;
11699;SDS011;5906;51.660;6.674;2023-03-20T13:53:41;5.93;;;4.60;;
11699;SDS011;5906;51.660;6.674;2023-03-20T14:01:27;7.63;;;4.20;;
11699;SDS011;5906;51.660;6.674;2023-03-20T14:03:59;7.83;;;4.93;;
11699;SDS011;5906;51.660;6.674;2023-03-20T14:09:30;6.60;;;4.80;;
11699;SDS011;5906;51.660;6.674;2023-03-20T14:12:07;7.63;;;5.43;;
11699;SDS011;5906;51.660;6.674;2023-03-20T14:19:42;8.93;;;4.70;;
11699;SDS011;5906;51.660;6.674;2023-03-20T14:22:14;11.93;;;4.30;;
11699;SDS011;5906;51.660;6.674;2023-03-20T14:24:48;11.10;;;5.97;;
11699;SDS011;5906;51.660;6.674;2023-03-20T14:27:19;9.00;;;4.90;;
11699;SDS011;5906;51.660;6.674;2023-03-20T14:30:35;7.43;;;4.70;;
11699;SDS011;5906;51.660;6.674;2023-03-20T14:35:44;12.13;;;4.60;;
11699;SDS011;5906;51.660;6.674;2023-03-20T14:40:59;15.07;;;5.97;;
11699;SDS011;5906;51.660;6.674;2023-03-20T14:49:12;13.53;;;5.40;;
11699;SDS011;5906;51.660;6.674;2023-03-20T14:52:27;13.73;;;5.30;;
11699;SDS011;5906;51.660;6.674;2023-03-20T14:54:57;12.87;;;6.03;;
11699;SDS011;5906;51.660;6.674;2023-03-20T14:57:45;15.20;;;6.00;;
11699;SDS011;5906;51.660;6.674;2023-03-20T15:00:23;19.93;;;5.07;;
11699;SDS011;5906;51.660;6.674;2023-03-20T15:02:56;13.00;;;5.67;;
11699;SDS011;5906;51.660;6.674;2023-03-20T15:05:32;14.07;;;5.77;;
11699;SDS011;5906;51.660;6.674;2023-03-20T15:08:09;12.27;;;5.90;;
11699;SDS011;5906;51.660;6.674;2023-03-20T15:10:45;16.10;;;6.07;;
11699;SDS011;5906;51.660;6.674;2023-03-20T15:13:15;15.40;;;6.23;;
11699;SDS011;5906;51.660;6.674;2023-03-20T15:15:51;12.93;;;6.10;;
11699;SDS011;5906;51.660;6.674;2023-03-20T15:18:22;14.30;;;6.37;;
11699;SDS011;5906;51.660;6.674;2023-03-20T15:20:51;10.07;;;6.47;;
11699;SDS011;5906;51.660;6.674;2023-03-20T15:23:20;9.57;;;6.33;;
11699;SDS011;5906;51.660;6.674;2023-03-20T15:25:48;14.80;;;6.67;;
11699;SDS011;5906;51.660;6.674;2023-03-20T15:28:23;19.10;;;7.80;;
11699;SDS011;5906;51.660;6.674;2023-03-20T15:30:52;21.03;;;7.23;;
11699;SDS011;5906;51.660;6.674;2023-03-20T15:33:27;17.10;;;7.53;;
11699;SDS011;5906;51.660;6.674;2023-03-20T15:36:05;13.47;;;7.63;;
11699;SDS011;5906;51.660;6.674;2023-03-20T15:38:34;12.80;;;6.60;;
11699;SDS011;5906;51.660;6.674;2023-03-20T15:41:05;8.63;;;6.50;;
11699;SDS011;5906;51.660;6.674;2023-03-20T15:43:33;18.70;;;7.30;;
11699;SDS011;5906;51.660;6.674;2023-03-20T15:46:02;12.53;;;7.10;;
11699;SDS011;5906;51.660;6.674;2023-03-20T15:48:47;17.97;;;7.90;;
11699;SDS011;5906;51.660;6.674;2023-03-20T15:51:15;11.90;;;7.50;;
11699;SDS011;5906;51.660;6.674;2023-03-20T15:53:44;20.43;;;8.20;;
11699;SDS011;5906;51.660;6.674;2023-03-20T15:56:16;28.40;;;7.83;;
11699;SDS011;5906;51.660;6.674;2023-03-20T15:58:46;9.50;;;6.70;;
11699;SDS011;5906;51.660;6.674;2023-03-20T16:01:16;13.77;;;7.33;;
11699;SDS011;5906;51.660;6.674;2023-03-20T16:03:45;13.03;;;7.13;;
11699;SDS011;5906;51.660;6.674;2023-03-20T16:06:14;10.93;;;6.73;;
11699;SDS011;5906;51.660;6.674;2023-03-20T16:08:57;16.60;;;7.23;;
11699;SDS011;5906;51.660;6.674;2023-03-20T16:11:36;13.27;;;7.00;;
11699;SDS011;5906;51.660;6.674;2023-03-20T16:14:06;16.33;;;6.77;;
11699;SDS011;5906;51.660;6.674;2023-03-20T16:16:39;14.13;;;7.40;;
11699;SDS011;5906;51.660;6.674;2023-03-20T16:19:07;13.27;;;6.57;;
11699;SDS011;5906;51.660;6.674;2023-03-20T16:21:37;12.60;;;7.07;;
11699;SDS011;5906;51.660;6.674;2023-03-20T16:24:14;17.00;;;6.90;;
11699;SDS011;5906;51.660;6.674;2023-03-20T16:26:48;11.93;;;6.37;;
11699;SDS011;5906;51.660;6.674;2023-03-20T16:29:18;18.97;;;7.10;;
11699;SDS011;5906;51.660;6.674;2023-03-20T16:31:56;14.20;;;7.83;;
11699;SDS011;5906;51.660;6.674;2023-03-20T16:34:34;15.93;;;7.53;;
11699;SDS011;5906;51.660;6.674;2023-03-20T16:37:07;10.70;;;6.80;;
11699;SDS011;5906;51.660;6.674;2023-03-20T16:40:00;12.80;;;7.40;;
11699;SDS011;5906;51.660;6.674;2023-03-20T16:42:29;12.07;;;7.57;;
11699;SDS011;5906;51.660;6.674;2023-03-20T16:44:56;13.90;;;7.43;;
11699;SDS011;5906;51.660;6.674;2023-03-20T16:47:24;14.10;;;7.93;;
11699;SDS011;5906;51.660;6.674;2023-03-20T16:50:04;15.13;;;7.63;;
11699;SDS011;5906;51.660;6.674;2023-03-20T16:52:36;18.40;;;7.73;;
11699;SDS011;5906;51.660;6.674;2023-03-20T16:55:05;8.53;;;6.43;;
11699;SDS011;5906;51.660;6.674;2023-03-20T16:57:40;14.03;;;7.67;;
11699;SDS011;5906;51.660;6.674;2023-03-20T17:00:18;11.83;;;6.70;;
11699;SDS011;5906;51.660;6.674;2023-03-20T17:02:50;16.90;;;7.57;;
11699;SDS011;5906;51.660;6.674;2023-03-20T17:05:23;13.93;;;7.57;;
11699;SDS011;5906;51.660;6.674;2023-03-20T17:08:12;15.00;;;6.80;;
11699;SDS011;5906;51.660;6.674;2023-03-20T17:10:42;14.27;;;7.27;;
11699;SDS011;5906;51.660;6.674;2023-03-20T17:13:11;14.30;;;7.23;;
11699;SDS011;5906;51.660;6.674;2023-03-20T17:15:38;17.47;;;6.97;;
11699;SDS011;5906;51.660;6.674;2023-03-20T17:18:08;17.17;;;8.97;;
11699;SDS011;5906;51.660;6.674;2023-03-20T17:20:39;16.73;;;6.90;;
11699;SDS011;5906;51.660;6.674;2023-03-20T17:23:13;14.20;;;7.20;;
11699;SDS011;5906;51.660;6.674;2023-03-20T17:25:44;13.13;;;7.20;;
11699;SDS011;5906;51.660;6.674;2023-03-20T17:28:16;14.20;;;7.80;;
11699;SDS011;5906;51.660;6.674;2023-03-20T17:30:46;13.87;;;7.97;;
11699;SDS011;5906;51.660;6.674;2023-03-20T17:33:15;23.40;;;7.83;;
11699;SDS011;5906;51.660;6.674;2023-03-20T17:35:44;14.10;;;7.17;;
11699;SDS011;5906;51.660;6.674;2023-03-20T17:38:15;15.00;;;7.97;;
11699;SDS011;5906;51.660;6.674;2023-03-20T17:40:47;41.50;;;8.37;;
11699;SDS011;5906;51.660;6.674;2023-03-20T17:43:15;14.50;;;7.80;;
11699;SDS011;5906;51.660;6.674;2023-03-20T17:45:44;20.63;;;7.37;;